Time;durP1;ratioP1;P1;durP2;ratioP2;P2;SDS_P1;SDS_P2;PMS_P1;PMS_P2;Temp;Humidity;BMP_temperature;BMP_pressure;BME280_temperature;BME280_humidity;BME280_pressure;Samples;Min_cycle;Max_cycle;Signal;HPM_P1;HPM_P2
2023/06/29 00:00:21;;;;;;;0.03;0.03;;;19.90;86.40;;;;;;5029185;28;20037;-67
2023/06/29 00:02:47;;;;;;;0.00;0.00;;;19.80;86.30;;;;;;5028579;28;20042;-67
2023/06/29 00:05:13;;;;;;;0.00;0.00;;;19.80;86.40;;;;;;5029201;28;20045;-68
2023/06/29 00:07:39;;;;;;;0.00;0.00;;;19.80;86.50;;;;;;5028499;28;20415;-67
2023/06/29 00:10:06;;;;;;;0.00;0.00;;;19.90;86.50;;;;;;5022886;28;20478;-68
2023/06/29 00:12:31;;;;;;;0.00;0.00;;;19.90;86.60;;;;;;5022806;28;20125;-69
2023/06/29 00:14:57;;;;;;;0.00;0.00;;;19.80;86.50;;;;;;5029738;28;20049;-68
2023/06/29 00:17:22;;;;;;;0.00;0.00;;;19.80;86.50;;;;;;5029238;28;20054;-68
2023/06/29 00:19:48;;;;;;;0.00;0.00;;;19.80;86.50;;;;;;5029485;28;20049;-68
2023/06/29 00:22:15;;;;;;;0.00;0.00;;;19.80;86.50;;;;;;5028878;28;20034;-68
2023/06/29 00:24:43;;;;;;;0.00;0.00;;;19.80;86.50;;;;;;5029361;28;20049;-68
2023/06/29 00:27:12;;;;;;;0.00;0.00;;;19.80;86.50;;;;;;5028805;28;20516;-67
2023/06/29 00:29:41;;;;;;;0.00;0.00;;;19.80;86.60;;;;;;5029263;28;20068;-67
2023/06/29 00:32:07;;;;;;;0.00;0.00;;;19.80;86.60;;;;;;5028957;28;20038;-67
2023/06/29 00:34:33;;;;;;;0.00;0.00;;;19.80;86.70;;;;;;5029078;28;20045;-68
2023/06/29 00:36:58;;;;;;;0.00;0.00;;;19.80;86.60;;;;;;5028403;28;20038;-67
2023/06/29 00:39:24;;;;;;;0.00;0.00;;;19.80;86.70;;;;;;5022650;28;20042;-67
2023/06/29 00:41:54;;;;;;;0.00;0.00;;;19.80;86.80;;;;;;5021649;28;20077;-67
2023/06/29 00:44:20;;;;;;;0.00;0.00;;;19.80;86.70;;;;;;5028671;28;20098;-67
2023/06/29 00:46:47;;;;;;;0.00;0.00;;;19.80;86.80;;;;;;5029686;28;20564;-67
2023/06/29 00:49:13;;;;;;;0.00;0.00;;;19.80;86.90;;;;;;5032071;28;20052;-67
2023/06/29 00:51:39;;;;;;;0.00;0.00;;;19.80;86.90;;;;;;5032992;28;20053;-67
2023/06/29 00:54:05;;;;;;;0.00;0.00;;;19.80;87.00;;;;;;5032983;28;20042;-67
2023/06/29 00:56:32;;;;;;;0.00;0.00;;;19.80;86.90;;;;;;5032626;28;20441;-67
2023/06/29 00:58:58;;;;;;;0.00;0.00;;;19.80;87.00;;;;;;5033139;28;20095;-67
2023/06/29 01:01:23;;;;;;;0.00;0.00;;;19.80;87.00;;;;;;5032841;28;20512;-67
2023/06/29 01:03:49;;;;;;;0.13;0.13;;;19.80;87.00;;;;;;5032535;28;20041;-68
2023/06/29 01:06:21;;;;;;;0.00;0.00;;;19.90;87.00;;;;;;5032374;28;20045;-67
2023/06/29 01:08:48;;;;;;;;;;;19.80;87.00;;;;;;5031638;28;20038;-68
2023/06/29 01:11:14;;;;;;;0.00;0.00;;;19.80;87.00;;;;;;5018310;28;19920;-67
2023/06/29 01:13:42;;;;;;;0.00;0.00;;;19.80;87.00;;;;;;5032263;28;20042;-67
2023/06/29 01:16:08;;;;;;;0.00;0.00;;;19.80;87.10;;;;;;5030429;28;20482;-67
2023/06/29 01:18:34;;;;;;;0.00;0.00;;;19.80;87.20;;;;;;5032166;28;20037;-67
2023/06/29 01:21:02;;;;;;;0.00;0.00;;;19.80;87.20;;;;;;5031770;28;20133;-67
2023/06/29 01:23:36;;;;;;;0.00;0.00;;;19.80;87.10;;;;;;5032917;28;20045;-67
2023/06/29 01:26:03;;;;;;;0.00;0.00;;;19.80;87.20;;;;;;5031666;28;20052;-67
2023/06/29 01:28:31;;;;;;;0.00;0.00;;;19.80;87.20;;;;;;5032055;28;20041;-67
2023/06/29 01:31:02;;;;;;;0.00;0.00;;;19.80;87.30;;;;;;5031419;28;20089;-67
2023/06/29 01:33:29;;;;;;;0.00;0.00;;;19.70;87.20;;;;;;5032218;28;20124;-67
2023/06/29 01:36:05;;;;;;;0.00;0.00;;;19.70;87.20;;;;;;5032229;28;20046;-67
2023/06/29 01:38:37;;;;;;;0.00;0.00;;;19.80;87.30;;;;;;5031901;28;20037;-67
2023/06/29 01:41:06;;;;;;;0.00;0.00;;;19.70;87.50;;;;;;5029862;28;20452;-67
2023/06/29 01:43:33;;;;;;;0.00;0.00;;;19.70;87.50;;;;;;5032280;28;20458;-68
2023/06/29 01:45:59;;;;;;;0.00;0.00;;;19.70;87.50;;;;;;5031993;28;20502;-67
2023/06/29 01:48:26;;;;;;;0.00;0.00;;;19.70;87.50;;;;;;5012007;28;20038;-66
2023/06/29 01:50:51;;;;;;;0.15;0.15;;;19.70;87.60;;;;;;5012356;28;20509;-67
2023/06/29 01:53:17;;;;;;;0.00;0.00;;;19.60;87.50;;;;;;5012019;28;20042;-67
2023/06/29 01:55:43;;;;;;;0.00;0.00;;;19.70;87.60;;;;;;5013408;28;20048;-67
2023/06/29 01:58:09;;;;;;;0.00;0.00;;;19.70;87.60;;;;;;5011507;28;20120;-67
2023/06/29 02:00:36;;;;;;;0.00;0.00;;;19.60;87.50;;;;;;5031997;28;20045;-67
2023/06/29 02:03:01;;;;;;;0.00;0.00;;;19.60;87.60;;;;;;5031251;28;20041;-67
2023/06/29 02:05:27;;;;;;;0.00;0.00;;;19.60;87.60;;;;;;5031439;28;20044;-67
2023/06/29 02:07:53;;;;;;;0.00;0.00;;;19.70;87.70;;;;;;5031265;28;20049;-67
2023/06/29 02:10:18;;;;;;;0.00;0.00;;;19.60;87.60;;;;;;5031802;28;20061;-68
2023/06/29 02:12:44;;;;;;;0.00;0.00;;;19.60;87.60;;;;;;5031438;28;20056;-69
2023/06/29 02:15:10;;;;;;;0.00;0.00;;;19.60;87.50;;;;;;5031523;28;20120;-69
2023/06/29 02:17:35;;;;;;;0.00;0.00;;;19.60;87.60;;;;;;5031389;28;20486;-68
2023/06/29 02:20:01;;;;;;;0.00;0.00;;;19.60;87.60;;;;;;5030087;28;20133;-69
2023/06/29 02:22:27;;;;;;;0.00;0.00;;;19.60;87.70;;;;;;5031586;28;20049;-68
2023/06/29 02:24:52;;;;;;;0.00;0.00;;;19.60;87.60;;;;;;5030830;28;20041;-68
2023/06/29 02:27:18;;;;;;;0.00;0.00;;;19.60;87.60;;;;;;5032216;28;20858;-68
2023/06/29 02:29:43;;;;;;;0.00;0.00;;;19.60;87.70;;;;;;5031246;28;20520;-68
2023/06/29 02:32:09;;;;;;;0.00;0.00;;;19.50;87.70;;;;;;5031012;28;20045;-68
2023/06/29 02:34:35;;;;;;;0.00;0.00;;;19.50;87.80;;;;;;5030616;28;20041;-68
2023/06/29 02:37:00;;;;;;;0.05;0.05;;;19.50;87.70;;;;;;5030851;28;20096;-67
2023/06/29 02:39:26;;;;;;;3.63;0.52;;;19.50;87.90;;;;;;5030749;28;20037;-68
2023/06/29 02:41:51;;;;;;;0.00;0.00;;;19.50;87.80;;;;;;5030935;28;20052;-68
2023/06/29 02:44:17;;;;;;;0.10;0.10;;;19.50;87.90;;;;;;5030730;28;20096;-68
2023/06/29 02:46:43;;;;;;;0.10;0.10;;;19.50;87.70;;;;;;5029636;28;20041;-67
2023/06/29 02:49:08;;;;;;;0.00;0.00;;;19.50;87.80;;;;;;5031026;28;20042;-68
2023/06/29 02:51:34;;;;;;;0.00;0.00;;;19.50;87.80;;;;;;5015920;28;20696;-67
2023/06/29 02:53:59;;;;;;;2.42;0.35;;;19.50;87.90;;;;;;5016276;28;20037;-68
2023/06/29 02:56:25;;;;;;;0.00;0.00;;;19.50;87.80;;;;;;5030038;28;20053;-67
2023/06/29 02:58:50;;;;;;;0.10;0.10;;;19.50;87.70;;;;;;5026405;28;20061;-67
2023/06/29 03:01:16;;;;;;;0.00;0.00;;;19.50;87.90;;;;;;5029513;28;20593;-68
2023/06/29 03:03:41;;;;;;;0.00;0.00;;;19.50;87.70;;;;;;5030332;28;20112;-68
2023/06/29 03:06:07;;;;;;;0.00;0.00;;;19.50;87.90;;;;;;5018640;28;20499;-68
2023/06/29 03:08:32;;;;;;;0.00;0.00;;;19.50;87.80;;;;;;5011056;28;20050;-68
2023/06/29 03:10:58;;;;;;;0.00;0.00;;;19.50;87.80;;;;;;5028287;28;20077;-68
2023/06/29 03:13:23;;;;;;;0.00;0.00;;;19.50;87.70;;;;;;5030573;28;20049;-67
2023/06/29 03:15:50;;;;;;;0.00;0.00;;;19.50;87.80;;;;;;5030097;28;20049;-67
2023/06/29 03:18:16;;;;;;;0.00;0.00;;;19.50;87.80;;;;;;5030294;28;20053;-68
2023/06/29 03:20:41;;;;;;;0.00;0.00;;;19.50;87.80;;;;;;5030070;28;20120;-69
2023/06/29 03:23:07;;;;;;;0.00;0.00;;;19.50;87.80;;;;;;5029995;28;20037;-69
2023/06/29 03:25:32;;;;;;;0.00;0.00;;;19.50;87.70;;;;;;5029679;28;20041;-68
2023/06/29 03:27:58;;;;;;;0.00;0.00;;;19.50;87.80;;;;;;5029584;28;20041;-68
2023/06/29 03:30:23;;;;;;;0.00;0.00;;;19.50;87.70;;;;;;5030037;28;20575;-68
2023/06/29 03:32:49;;;;;;;0.00;0.00;;;19.50;87.70;;;;;;5028879;28;20092;-67
2023/06/29 03:35:15;;;;;;;0.00;0.00;;;19.50;87.60;;;;;;5030499;28;20051;-67
2023/06/29 03:37:40;;;;;;;0.00;0.00;;;19.60;87.60;;;;;;5029657;28;20128;-68
2023/06/29 03:40:06;;;;;;;0.00;0.00;;;19.50;87.60;;;;;;5029367;28;20045;-67
2023/06/29 03:42:32;;;;;;;0.13;0.13;;;19.60;87.60;;;;;;5029665;28;20406;-67
2023/06/29 03:44:58;;;;;;;0.52;0.47;;;19.60;87.60;;;;;;5029490;28;20120;-67
2023/06/29 03:47:23;;;;;;;0.00;0.00;;;19.60;87.50;;;;;;5029315;28;20041;-68
2023/06/29 03:49:49;;;;;;;0.00;0.00;;;19.60;87.60;;;;;;5029297;28;20069;-67
2023/06/29 03:52:14;;;;;;;0.00;0.00;;;19.60;87.50;;;;;;5029586;28;20045;-67
2023/06/29 03:54:40;;;;;;;0.00;0.00;;;19.60;87.60;;;;;;5029599;28;20144;-67
2023/06/29 03:57:07;;;;;;;0.00;0.00;;;19.60;87.60;;;;;;5029142;28;20049;-67
2023/06/29 03:59:32;;;;;;;0.00;0.00;;;19.60;87.70;;;;;;5006079;28;20048;-67
2023/06/29 04:01:58;;;;;;;0.00;0.00;;;19.60;87.60;;;;;;5023698;28;20041;-68
2023/06/29 04:04:23;;;;;;;0.00;0.00;;;19.60;87.70;;;;;;5029017;28;20045;-67
2023/06/29 04:06:49;;;;;;;0.00;0.00;;;19.60;87.60;;;;;;5012194;28;20499;-67
2023/06/29 04:09:14;;;;;;;0.00;0.00;;;19.60;87.50;;;;;;5028288;28;20523;-67
2023/06/29 04:11:40;;;;;;;0.00;0.00;;;19.60;87.50;;;;;;5029477;28;20666;-67
2023/06/29 04:14:06;;;;;;;0.00;0.00;;;19.60;87.50;;;;;;5019898;28;20045;-66
2023/06/29 04:16:32;;;;;;;0.00;0.00;;;19.70;87.40;;;;;;5009554;28;20048;-69
2023/06/29 04:18:57;;;;;;;0.00;0.00;;;19.70;87.40;;;;;;5010261;28;20081;-68
2023/06/29 04:21:23;;;;;;;0.05;0.05;;;19.70;87.40;;;;;;5015808;28;20443;-67
2023/06/29 04:23:48;;;;;;;0.00;0.00;;;19.70;87.40;;;;;;5028749;28;20041;-67
2023/06/29 04:26:15;;;;;;;0.00;0.00;;;19.60;87.30;;;;;;5028060;28;20087;-67
2023/06/29 04:28:44;;;;;;;0.28;0.28;;;19.60;87.20;;;;;;5029118;28;20056;-68
2023/06/29 04:31:10;;;;;;;0.10;0.10;;;19.60;87.10;;;;;;5028643;28;20505;-68
2023/06/29 04:33:35;;;;;;;0.20;0.20;;;19.60;87.10;;;;;;5029237;28;20099;-67
2023/06/29 04:36:01;;;;;;;0.00;0.00;;;19.60;87.00;;;;;;5028880;28;20041;-67
2023/06/29 04:38:27;;;;;;;0.00;0.00;;;19.60;87.00;;;;;;5027802;28;20076;-67
2023/06/29 04:40:59;;;;;;;0.00;0.00;;;19.60;87.00;;;;;;5029140;28;20119;-67
2023/06/29 04:43:25;;;;;;;0.15;0.15;;;19.60;86.90;;;;;;5028842;28;20053;-67
2023/06/29 04:45:50;;;;;;;0.00;0.00;;;19.60;86.90;;;;;;5028806;28;20851;-67
2023/06/29 04:48:16;;;;;;;0.00;0.00;;;19.60;87.00;;;;;;5028971;28;20041;-67
2023/06/29 04:50:41;;;;;;;0.00;0.00;;;19.60;87.10;;;;;;5028202;28;20033;-67
2023/06/29 04:53:12;;;;;;;0.00;0.00;;;19.60;87.10;;;;;;5014698;28;20037;-68
2023/06/29 04:55:38;;;;;;;0.00;0.00;;;19.70;87.00;;;;;;5028955;28;20081;-67
2023/06/29 04:58:04;;;;;;;0.00;0.00;;;19.70;87.10;;;;;;5028795;28;20050;-67
2023/06/29 05:00:32;;;;;;;0.10;0.10;;;19.70;87.10;;;;;;5028434;28;20049;-67
2023/06/29 05:02:59;;;;;;;0.00;0.00;;;19.70;87.20;;;;;;5009098;28;20046;-67
2023/06/29 05:05:25;;;;;;;0.00;0.00;;;19.70;87.10;;;;;;5008688;28;20050;-68
2023/06/29 05:07:51;;;;;;;0.00;0.00;;;19.80;87.10;;;;;;5008809;28;20058;-67
2023/06/29 05:10:16;;;;;;;0.00;0.00;;;19.70;87.30;;;;;;5008933;28;20058;-67
2023/06/29 05:12:42;;;;;;;0.00;0.00;;;19.70;87.30;;;;;;5009528;28;20506;-67
2023/06/29 05:15:08;;;;;;;0.00;0.00;;;19.70;87.30;;;;;;5028042;28;20454;-67
2023/06/29 05:17:34;;;;;;;0.00;0.00;;;19.70;87.40;;;;;;5014828;28;20069;-66
2023/06/29 05:19:59;;;;;;;0.00;0.00;;;19.80;87.50;;;;;;5008284;28;20054;-67
2023/06/29 05:22:25;;;;;;;0.00;0.00;;;19.70;87.40;;;;;;5028110;28;20604;-67
2023/06/29 05:24:50;;;;;;;0.00;0.00;;;19.80;87.60;;;;;;5028619;28;20041;-68
2023/06/29 05:27:16;;;;;;;0.00;0.00;;;19.80;87.60;;;;;;5027906;28;20045;-68
2023/06/29 05:29:41;;;;;;;0.00;0.00;;;19.80;87.70;;;;;;5026916;28;20045;-68
2023/06/29 05:32:07;;;;;;;0.00;0.00;;;19.70;87.60;;;;;;5020111;28;20041;-67
2023/06/29 05:34:33;;;;;;;0.03;0.03;;;19.70;87.60;;;;;;5023423;28;20079;-67
2023/06/29 05:36:58;;;;;;;0.00;0.00;;;19.80;87.70;;;;;;5027177;28;20041;-68
2023/06/29 05:39:24;;;;;;;2.08;0.57;;;19.80;87.70;;;;;;5022086;28;20041;-68
2023/06/29 05:41:49;;;;;;;0.00;0.00;;;19.70;87.80;;;;;;5031488;28;20076;-68
2023/06/29 05:44:15;;;;;;;0.00;0.00;;;19.80;87.90;;;;;;5031494;28;20065;-67
2023/06/29 05:46:40;;;;;;;0.00;0.00;;;19.70;87.90;;;;;;5032210;28;20140;-69
2023/06/29 05:49:06;;;;;;;0.00;0.00;;;19.80;87.80;;;;;;5021219;28;20041;-68
2023/06/29 05:51:34;;;;;;;0.63;0.63;;;19.80;87.80;;;;;;5032062;28;20041;-68
2023/06/29 05:54:01;;;;;;;0.00;0.00;;;19.80;87.60;;;;;;5031681;28;20147;-67
2023/06/29 05:56:27;;;;;;;0.00;0.00;;;19.80;87.60;;;;;;5030036;28;20037;-69
2023/06/29 05:58:53;;;;;;;0.00;0.00;;;19.80;87.70;;;;;;5031109;28;20065;-68
2023/06/29 06:01:20;;;;;;;0.00;0.00;;;19.80;87.60;;;;;;5031587;28;20407;-68
2023/06/29 06:03:46;;;;;;;0.00;0.00;;;19.80;87.60;;;;;;5031874;28;20056;-68
2023/06/29 06:06:11;;;;;;;2.45;1.35;;;19.80;87.70;;;;;;5022768;28;20045;-67
2023/06/29 06:08:37;;;;;;;0.00;0.00;;;19.80;87.90;;;;;;5020325;28;20060;-69
2023/06/29 06:11:02;;;;;;;0.10;0.10;;;19.80;87.80;;;;;;5031399;28;20041;-68
2023/06/29 06:13:28;;;;;;;0.00;0.00;;;19.80;87.90;;;;;;5022373;28;20041;-69
2023/06/29 06:15:53;;;;;;;0.00;0.00;;;19.80;87.80;;;;;;5027596;28;20049;-69
2023/06/29 06:18:19;;;;;;;0.00;0.00;;;19.80;87.90;;;;;;5030206;28;20038;-66
2023/06/29 06:20:44;;;;;;;0.00;0.00;;;19.90;88.20;;;;;;5028208;28;20041;-66
2023/06/29 06:23:10;;;;;;;0.43;0.43;;;19.80;88.10;;;;;;5021795;28;20184;-66
2023/06/29 06:25:35;;;;;;;0.05;0.05;;;19.90;88.00;;;;;;5031444;28;20049;-67
2023/06/29 06:28:01;;;;;;;0.13;0.13;;;20.00;88.00;;;;;;5030802;28;20057;-67
2023/06/29 06:30:27;;;;;;;0.00;0.00;;;20.00;88.00;;;;;;5030985;28;20574;-67
2023/06/29 06:32:52;;;;;;;0.00;0.00;;;20.00;88.00;;;;;;5030758;28;20041;-67
2023/06/29 06:35:18;;;;;;;0.25;0.25;;;20.00;88.00;;;;;;5031450;28;20042;-67
2023/06/29 06:37:45;;;;;;;0.43;0.43;;;20.00;87.90;;;;;;5028793;28;20050;-67
2023/06/29 06:40:11;;;;;;;0.45;0.45;;;20.00;87.70;;;;;;5027482;28;20540;-67
2023/06/29 06:42:37;;;;;;;0.00;0.00;;;20.00;87.60;;;;;;5030133;28;20041;-66
2023/06/29 06:45:04;;;;;;;0.03;0.03;;;20.00;87.60;;;;;;5026072;28;20044;-67
2023/06/29 06:47:31;;;;;;;1.65;0.70;;;20.10;87.60;;;;;;5025776;28;20041;-67
2023/06/29 06:49:57;;;;;;;0.00;0.00;;;20.10;87.60;;;;;;5026323;28;20037;-67
2023/06/29 06:52:22;;;;;;;0.00;0.00;;;20.10;87.70;;;;;;5024008;28;20509;-66
2023/06/29 06:54:48;;;;;;;0.63;0.63;;;20.20;87.70;;;;;;5024845;28;20127;-67
2023/06/29 06:57:13;;;;;;;0.70;0.38;;;20.10;87.50;;;;;;5027449;28;20041;-66
2023/06/29 06:59:39;;;;;;;0.00;0.00;;;20.20;87.50;;;;;;5027381;28;20068;-67
2023/06/29 07:02:06;;;;;;;0.00;0.00;;;20.20;87.40;;;;;;5026337;28;20049;-66
2023/06/29 07:04:31;;;;;;;0.22;0.22;;;20.20;87.40;;;;;;5026940;28;20060;-66
2023/06/29 07:06:57;;;;;;;2.65;0.93;;;20.30;87.30;;;;;;5027224;28;20049;-66
2023/06/29 07:09:23;;;;;;;0.17;0.08;;;20.30;87.10;;;;;;5026777;28;20061;-66
2023/06/29 07:11:49;;;;;;;0.00;0.00;;;20.30;87.20;;;;;;5025807;28;20111;-66
2023/06/29 07:14:16;;;;;;;0.10;0.10;;;20.30;87.10;;;;;;5025039;28;20172;-67
2023/06/29 07:16:41;;;;;;;0.20;0.20;;;20.40;87.10;;;;;;5026247;28;20045;-67
2023/06/29 07:19:08;;;;;;;0.47;0.47;;;20.40;87.20;;;;;;5027212;28;20038;-66
2023/06/29 07:21:34;;;;;;;0.10;0.10;;;20.50;87.10;;;;;;5026273;28;20049;-66
2023/06/29 07:24:00;;;;;;;0.10;0.10;;;20.50;87.00;;;;;;5027424;28;20562;-66
2023/06/29 07:26:26;;;;;;;0.08;0.08;;;20.60;86.90;;;;;;5024712;28;20116;-67
2023/06/29 07:28:52;;;;;;;0.88;0.77;;;20.60;86.80;;;;;;5025602;28;20045;-66
2023/06/29 07:31:18;;;;;;;0.10;0.10;;;20.70;86.60;;;;;;5026094;28;20053;-66
2023/06/29 07:33:43;;;;;;;0.20;0.20;;;20.70;86.60;;;;;;5025290;28;20585;-66
2023/06/29 07:36:09;;;;;;;0.10;0.10;;;20.80;86.40;;;;;;5026686;28;20037;-67
2023/06/29 07:38:35;;;;;;;0.30;0.30;;;20.90;86.20;;;;;;5027339;28;20068;-66
2023/06/29 07:41:03;;;;;;;0.65;0.65;;;21.00;86.20;;;;;;5026735;28;20049;-66
2023/06/29 07:43:28;;;;;;;0.10;0.10;;;21.00;86.40;;;;;;5025549;28;20068;-66
2023/06/29 07:45:55;;;;;;;0.20;0.20;;;21.00;86.10;;;;;;5025481;28;20076;-66
2023/06/29 07:48:21;;;;;;;0.13;0.13;;;21.00;85.90;;;;;;5023160;28;20168;-66
2023/06/29 07:50:46;;;;;;;0.52;0.52;;;21.00;85.70;;;;;;5024696;28;20132;-63
2023/06/29 07:53:12;;;;;;;0.30;0.30;;;20.90;85.10;;;;;;5022583;28;20049;-66
2023/06/29 07:55:37;;;;;;;0.00;0.00;;;20.80;84.80;;;;;;5026248;28;20038;-66
2023/06/29 07:58:03;;;;;;;0.35;0.35;;;20.80;85.00;;;;;;5023831;28;20053;-66
2023/06/29 08:00:29;;;;;;;0.15;0.15;;;20.80;85.00;;;;;;5025161;28;20112;-66
2023/06/29 08:02:54;;;;;;;0.10;0.10;;;20.80;85.00;;;;;;5024297;28;20053;-67
2023/06/29 08:05:21;;;;;;;0.20;0.20;;;20.70;84.90;;;;;;5025052;28;20128;-63
2023/06/29 08:07:47;;;;;;;0.73;0.32;;;20.70;85.10;;;;;;5023012;28;20057;-67
2023/06/29 08:10:13;;;;;;;0.00;0.00;;;20.70;85.20;;;;;;5026677;28;20088;-66
2023/06/29 08:12:38;;;;;;;0.10;0.10;;;20.60;85.10;;;;;;5023754;28;20057;-67
2023/06/29 08:15:04;;;;;;;0.22;0.22;;;20.50;85.10;;;;;;5024905;28;20048;-66
2023/06/29 08:17:30;;;;;;;0.10;0.10;;;20.60;85.20;;;;;;5024757;28;20045;-66
2023/06/29 08:19:56;;;;;;;0.25;0.25;;;20.60;85.30;;;;;;5025651;28;20049;-64
2023/06/29 08:22:21;;;;;;;0.00;0.00;;;20.50;85.20;;;;;;5025606;28;20053;-64
2023/06/29 08:24:47;;;;;;;0.47;0.47;;;20.60;85.40;;;;;;5026199;28;20045;-65
2023/06/29 08:27:12;;;;;;;0.00;0.00;;;20.50;85.20;;;;;;5024376;28;20059;-65
2023/06/29 08:29:41;;;;;;;0.22;0.22;;;20.50;85.30;;;;;;5025901;28;20048;-65
2023/06/29 08:32:08;;;;;;;0.00;0.00;;;20.50;85.30;;;;;;5024445;28;20053;-64
2023/06/29 08:34:33;;;;;;;0.00;0.00;;;20.50;85.40;;;;;;5024219;28;21309;-64
2023/06/29 08:36:59;;;;;;;0.00;0.00;;;20.40;85.60;;;;;;5024457;28;20052;-64
2023/06/29 08:39:25;;;;;;;0.15;0.15;;;20.50;85.50;;;;;;5025567;28;20045;-65
2023/06/29 08:41:51;;;;;;;0.00;0.00;;;20.50;85.60;;;;;;5024362;28;20046;-66
2023/06/29 08:44:17;;;;;;;0.10;0.10;;;20.50;85.60;;;;;;5025735;28;20056;-66
2023/06/29 08:46:46;;;;;;;1.98;0.57;;;20.40;85.90;;;;;;5024808;28;21276;-64
2023/06/29 08:49:12;;;;;;;0.10;0.10;;;20.40;85.90;;;;;;5024140;28;20441;-66
2023/06/29 08:51:41;;;;;;;0.55;0.55;;;20.40;86.20;;;;;;5026246;28;20478;-65
2023/06/29 08:54:09;;;;;;;0.10;0.10;;;20.40;86.40;;;;;;5024019;28;20060;-65
2023/06/29 08:56:35;;;;;;;0.63;0.63;;;20.30;86.60;;;;;;5024380;28;20053;-65
2023/06/29 08:59:01;;;;;;;0.08;0.08;;;20.30;86.70;;;;;;5022615;28;20057;-66
2023/06/29 09:01:28;;;;;;;0.10;0.10;;;20.20;87.00;;;;;;5023249;28;20041;-66
2023/06/29 09:03:54;;;;;;;1.25;1.15;;;20.10;87.30;;;;;;5026229;28;20049;-65
2023/06/29 09:06:20;;;;;;;3.20;0.82;;;20.00;87.20;;;;;;5024717;28;20077;-65
2023/06/29 09:08:45;;;;;;;4.93;1.20;;;20.00;87.40;;;;;;5027807;28;20131;-65
2023/06/29 09:11:11;;;;;;;0.10;0.10;;;20.00;87.90;;;;;;5028987;28;20052;-66
2023/06/29 09:13:37;;;;;;;0.30;0.30;;;20.00;87.90;;;;;;5029259;28;20074;-65
2023/06/29 09:16:03;;;;;;;0.00;0.00;;;19.90;88.20;;;;;;5029160;28;20092;-66
2023/06/29 09:18:29;;;;;;;0.73;0.73;;;19.90;88.10;;;;;;5027837;28;20565;-66
2023/06/29 09:20:56;;;;;;;0.22;0.22;;;20.00;88.20;;;;;;5030181;28;20041;-66
2023/06/29 09:23:22;;;;;;;0.10;0.10;;;19.90;88.20;;;;;;5027146;28;20044;-66
2023/06/29 09:25:52;;;;;;;0.40;0.40;;;20.00;88.50;;;;;;5028967;28;20144;-66
2023/06/29 09:28:18;;;;;;;0.00;0.00;;;20.00;88.40;;;;;;5028885;28;20558;-65
2023/06/29 09:30:43;;;;;;;0.00;0.00;;;20.00;88.30;;;;;;5028718;28;20073;-67
2023/06/29 09:33:11;;;;;;;0.13;0.13;;;20.10;88.20;;;;;;5028511;28;20061;-65
2023/06/29 09:35:39;;;;;;;0.10;0.10;;;20.10;88.20;;;;;;5027570;28;20045;-65
2023/06/29 09:38:04;;;;;;;0.10;0.10;;;20.20;88.20;;;;;;5029421;28;20088;-65
2023/06/29 09:40:30;;;;;;;0.10;0.10;;;20.20;88.10;;;;;;5015167;28;20050;-66
2023/06/29 09:42:56;;;;;;;0.10;0.10;;;20.20;88.10;;;;;;5029108;28;20046;-65
2023/06/29 09:45:21;;;;;;;0.15;0.13;;;20.30;88.20;;;;;;5030590;28;20045;-65
2023/06/29 09:47:51;;;;;;;0.00;0.00;;;20.30;88.10;;;;;;5030451;28;20085;-65
2023/06/29 09:50:21;;;;;;;0.00;0.00;;;20.40;88.00;;;;;;5029814;28;20033;-66
2023/06/29 09:52:49;;;;;;;0.15;0.15;;;20.40;87.90;;;;;;5029614;28;20053;-66
2023/06/29 09:55:15;;;;;;;0.13;0.13;;;20.50;87.90;;;;;;5027710;28;20501;-66
2023/06/29 09:57:45;;;;;;;0.05;0.05;;;20.40;87.80;;;;;;5028959;28;20136;-66
2023/06/29 10:00:13;;;;;;;0.00;0.00;;;20.50;87.90;;;;;;5028888;28;20045;-67
2023/06/29 10:02:42;;;;;;;0.30;0.30;;;20.50;87.70;;;;;;5025679;28;20057;-67
2023/06/29 10:05:10;;;;;;;0.32;0.22;;;20.50;87.60;;;;;;5027586;28;20034;-67
2023/06/29 10:07:37;;;;;;;0.65;0.22;;;20.60;87.50;;;;;;5027618;28;20088;-68
2023/06/29 10:10:07;;;;;;;0.10;0.10;;;20.60;87.40;;;;;;5028111;28;20121;-67
2023/06/29 10:12:33;;;;;;;0.20;0.17;;;20.60;87.30;;;;;;5026725;28;20045;-67
2023/06/29 10:15:08;;;;;;;0.00;0.00;;;20.60;87.20;;;;;;5027402;28;20048;-67
2023/06/29 10:18:08;;;;;;;1.67;1.10;;;20.60;87.10;;;;;;5027245;28;20049;-68
2023/06/29 10:20:39;;;;;;;0.13;0.13;;;20.70;87.00;;;;;;5027976;28;20120;-67
2023/06/29 10:23:07;;;;;;;0.05;0.05;;;20.60;87.10;;;;;;5018512;28;20060;-67
2023/06/29 10:25:36;;;;;;;0.47;0.47;;;20.70;87.30;;;;;;5026129;28;20037;-67
2023/06/29 10:28:02;;;;;;;1.13;0.85;;;20.70;87.20;;;;;;5024479;28;20068;-67
2023/06/29 10:30:28;;;;;;;0.17;0.17;;;20.80;87.00;;;;;;5025593;28;20064;-68
2023/06/29 10:32:54;;;;;;;0.00;0.00;;;20.80;86.80;;;;;;5026153;28;20119;-67
2023/06/29 10:35:24;;;;;;;0.25;0.25;;;20.80;86.80;;;;;;5027347;28;20052;-67
2023/06/29 10:37:50;;;;;;;1.63;0.97;;;20.90;86.80;;;;;;5025466;28;20171;-66
2023/06/29 10:40:21;;;;;;;0.25;0.25;;;21.00;86.60;;;;;;5028812;28;20514;-69
2023/06/29 10:42:47;;;;;;;0.00;0.00;;;21.00;85.90;;;;;;5027772;28;20061;-68
2023/06/29 10:45:16;;;;;;;0.00;0.00;;;21.00;85.60;;;;;;5028816;28;20042;-68
2023/06/29 10:47:41;;;;;;;0.10;0.10;;;21.00;85.90;;;;;;5026742;28;20085;-67
2023/06/29 10:50:10;;;;;;;1.20;1.13;;;21.00;86.00;;;;;;5025903;28;20072;-67
2023/06/29 10:52:40;;;;;;;0.40;0.40;;;21.00;86.00;;;;;;5027951;28;20045;-67
2023/06/29 10:55:19;;;;;;;1.08;0.70;;;21.10;85.80;;;;;;5025522;28;20045;-67
2023/06/29 10:57:58;;;;;;;0.17;0.17;;;21.20;85.60;;;;;;5028515;28;20056;-66
2023/06/29 11:00:25;;;;;;;0.20;0.20;;;21.20;85.20;;;;;;5027123;28;20585;-67
2023/06/29 11:02:52;;;;;;;1.05;0.45;;;21.20;85.00;;;;;;5026126;28;20042;-68
2023/06/29 11:05:19;;;;;;;0.10;0.10;;;21.40;84.90;;;;;;5026635;28;20092;-68
2023/06/29 11:07:50;;;;;;;3.40;0.60;;;21.50;84.90;;;;;;5019834;28;20058;-66
2023/06/29 11:10:17;;;;;;;0.82;0.80;;;21.60;84.60;;;;;;5023481;28;20413;-67
2023/06/29 11:12:42;;;;;;;0.10;0.10;;;21.70;84.00;;;;;;5025779;28;20045;-67
2023/06/29 11:15:12;;;;;;;0.20;0.20;;;21.80;84.00;;;;;;5027271;28;20045;-67
2023/06/29 11:17:45;;;;;;;0.95;0.63;;;21.90;83.60;;;;;;5024299;28;20056;-68
2023/06/29 11:20:12;;;;;;;0.10;0.10;;;22.00;83.20;;;;;;5018037;28;20731;-67
2023/06/29 11:22:38;;;;;;;1.48;0.63;;;22.00;82.10;;;;;;5026915;28;20087;-68
2023/06/29 11:25:04;;;;;;;0.32;0.32;;;22.10;82.10;;;;;;5023123;28;20049;-67
2023/06/29 11:27:29;;;;;;;0.10;0.10;;;22.20;82.30;;;;;;5027496;28;20056;-69
2023/06/29 11:29:56;;;;;;;0.25;0.15;;;22.30;81.50;;;;;;5026219;28;20049;-67
2023/06/29 11:32:23;;;;;;;0.30;0.30;;;22.30;81.40;;;;;;5027670;28;20548;-69
2023/06/29 11:35:02;;;;;;;0.65;0.50;;;22.30;81.60;;;;;;5023976;28;20095;-68
2023/06/29 11:37:28;;;;;;;0.35;0.35;;;22.20;81.20;;;;;;5027874;28;20124;-68
2023/06/29 11:39:54;;;;;;;0.20;0.20;;;22.20;81.00;;;;;;5026651;28;20034;-67
2023/06/29 11:42:22;;;;;;;0.80;0.80;;;22.20;81.20;;;;;;5026470;28;20107;-67
2023/06/29 11:45:04;;;;;;;0.82;0.68;;;22.10;81.20;;;;;;5024101;28;20072;-66
2023/06/29 11:47:30;;;;;;;0.68;0.68;;;22.20;81.50;;;;;;5026440;28;20045;-67
2023/06/29 11:50:00;;;;;;;0.52;0.43;;;22.20;80.80;;;;;;5026243;28;20041;-67
2023/06/29 11:52:29;;;;;;;0.60;0.60;;;22.30;80.80;;;;;;5021734;28;20408;-67
2023/06/29 11:54:55;;;;;;;0.20;0.20;;;22.40;81.00;;;;;;5024130;28;20041;-68
2023/06/29 11:57:21;;;;;;;0.40;0.40;;;22.50;81.30;;;;;;5028788;28;20382;-67
2023/06/29 11:59:46;;;;;;;0.38;0.38;;;22.50;81.20;;;;;;5025593;28;20046;-68
2023/06/29 12:02:14;;;;;;;0.63;0.55;;;22.70;80.70;;;;;;5026769;28;20136;-68
2023/06/29 12:04:56;;;;;;;3.22;1.27;;;22.80;80.50;;;;;;5025853;28;20041;-68
2023/06/29 12:07:45;;;;;;;0.73;0.68;;;22.90;80.10;;;;;;5025188;28;20049;-66
2023/06/29 12:10:20;;;;;;;0.25;0.25;;;22.80;79.10;;;;;;5025767;28;20178;-67
2023/06/29 12:12:48;;;;;;;1.02;0.68;;;22.70;79.80;;;;;;5026407;28;20128;-68
2023/06/29 12:15:35;;;;;;;2.35;1.40;;;22.60;79.80;;;;;;5025318;28;20048;-68
2023/06/29 12:18:10;;;;;;;1.13;0.63;;;22.50;79.70;;;;;;5023560;28;20073;-68
2023/06/29 12:20:43;;;;;;;0.95;0.75;;;22.30;79.80;;;;;;5024011;28;20387;-68
2023/06/29 12:23:11;;;;;;;0.35;0.20;;;22.20;79.50;;;;;;5024774;28;20045;-68
2023/06/29 12:25:48;;;;;;;1.10;0.88;;;22.20;79.50;;;;;;5022282;28;20111;-68
2023/06/29 12:28:14;;;;;;;0.43;0.43;;;22.20;79.90;;;;;;5026030;28;20045;-68
2023/06/29 12:30:40;;;;;;;0.00;0.00;;;22.00;80.10;;;;;;5025810;28;20045;-68
2023/06/29 12:33:06;;;;;;;0.85;0.85;;;22.00;80.40;;;;;;5024343;28;20052;-67
2023/06/29 12:35:32;;;;;;;0.20;0.20;;;22.00;80.60;;;;;;5024877;28;20034;-67
2023/06/29 12:37:58;;;;;;;3.10;2.25;;;22.00;80.70;;;;;;5024898;28;20057;-67
2023/06/29 12:40:24;;;;;;;0.65;0.60;;;21.90;80.90;;;;;;5024678;28;21296;-68
2023/06/29 12:42:49;;;;;;;0.35;0.35;;;21.90;80.90;;;;;;5024977;28;20037;-67
2023/06/29 12:45:15;;;;;;;0.85;0.82;;;21.80;81.00;;;;;;5025531;28;20045;-67